sensor_id;sensor_type;location;lat;lon;timestamp;pressure;altitude;pressure_sealevel;temperature;humidity
13041;BME280;6587;42.728;23.288;2022-10-31T00:01:46;95591.25;;;13.39;83.29
13041;BME280;6587;42.728;23.288;2022-10-31T00:04:13;95593.72;;;13.53;82.98
13041;BME280;6587;42.728;23.288;2022-10-31T00:06:42;95597.09;;;13.47;83.49
13041;BME280;6587;42.728;23.288;2022-10-31T00:09:09;95602.97;;;13.52;84.10
13041;BME280;6587;42.728;23.288;2022-10-31T00:11:36;95600.44;;;13.51;84.09
13041;BME280;6587;42.728;23.288;2022-10-31T00:14:04;95588.72;;;13.45;84.85
13041;BME280;6587;42.728;23.288;2022-10-31T00:16:31;95611.38;;;13.53;85.00
13041;BME280;6587;42.728;23.288;2022-10-31T00:19:00;95602.13;;;13.52;86.12
13041;BME280;6587;42.728;23.288;2022-10-31T00:21:29;95601.31;;;13.45;86.49
13041;BME280;6587;42.728;23.288;2022-10-31T00:23:58;95589.56;;;13.44;87.20
13041;BME280;6587;42.728;23.288;2022-10-31T00:26:26;95579.53;;;13.32;87.84
13041;BME280;6587;42.728;23.288;2022-10-31T00:28:53;95603.88;;;13.34;88.27
13041;BME280;6587;42.728;23.288;2022-10-31T00:31:20;95602.19;;;13.41;88.48
13041;BME280;6587;42.728;23.288;2022-10-31T00:33:48;95589.53;;;13.48;88.35
13041;BME280;6587;42.728;23.288;2022-10-31T00:36:19;95578.69;;;13.31;88.96
13041;BME280;6587;42.728;23.288;2022-10-31T00:38:47;95575.28;;;13.43;87.84
13041;BME280;6587;42.728;23.288;2022-10-31T00:41:16;95587.81;;;13.57;87.51
13041;BME280;6587;42.728;23.288;2022-10-31T00:43:44;95592.88;;;13.57;87.73
13041;BME280;6587;42.728;23.288;2022-10-31T00:46:11;95587.84;;;13.55;87.32
13041;BME280;6587;42.728;23.288;2022-10-31T00:48:40;95581.13;;;13.56;87.11
13041;BME280;6587;42.728;23.288;2022-10-31T00:51:08;95581.97;;;13.55;87.30
13041;BME280;6587;42.728;23.288;2022-10-31T00:53:35;95579.47;;;13.45;87.66
13041;BME280;6587;42.728;23.288;2022-10-31T00:56:03;95586.13;;;13.57;87.69
13041;BME280;6587;42.728;23.288;2022-10-31T00:58:31;95590.31;;;13.63;87.13
13041;BME280;6587;42.728;23.288;2022-10-31T01:00:58;95597.06;;;13.58;87.63
13041;BME280;6587;42.728;23.288;2022-10-31T01:03:27;95596.25;;;13.53;87.72
13041;BME280;6587;42.728;23.288;2022-10-31T01:05:57;95590.34;;;13.54;87.64
13041;BME280;6587;42.728;23.288;2022-10-31T01:08:25;95597.91;;;13.57;87.61
13041;BME280;6587;42.728;23.288;2022-10-31T01:11:03;95597.91;;;13.60;87.20
13041;BME280;6587;42.728;23.288;2022-10-31T01:13:34;95581.97;;;13.50;87.31
13041;BME280;6587;42.728;23.288;2022-10-31T01:16:02;95599.59;;;13.56;87.14
13041;BME280;6587;42.728;23.288;2022-10-31T01:18:31;95597.06;;;13.62;86.91
13041;BME280;6587;42.728;23.288;2022-10-31T01:21:01;95601.22;;;13.72;86.39
13041;BME280;6587;42.728;23.288;2022-10-31T01:23:29;95602.91;;;13.61;86.47
13041;BME280;6587;42.728;23.288;2022-10-31T01:26:05;95601.25;;;13.62;86.57
13041;BME280;6587;42.728;23.288;2022-10-31T01:28:35;95588.69;;;13.56;87.20
13041;BME280;6587;42.728;23.288;2022-10-31T01:31:04;95607.13;;;13.62;87.62
13041;BME280;6587;42.728;23.288;2022-10-31T01:33:33;95607.97;;;13.64;87.62
13041;BME280;6587;42.728;23.288;2022-10-31T01:36:01;95606.28;;;13.69;87.96
13041;BME280;6587;42.728;23.288;2022-10-31T01:38:37;95600.41;;;13.63;88.45
13041;BME280;6587;42.728;23.288;2022-10-31T01:41:04;95595.41;;;13.58;88.31
13041;BME280;6587;42.728;23.288;2022-10-31T01:43:48;95598.66;;;13.76;88.28
13041;BME280;6587;42.728;23.288;2022-10-31T01:46:19;95603.69;;;13.79;88.56
13041;BME280;6587;42.728;23.288;2022-10-31T01:48:47;95605.31;;;13.89;87.81
13041;BME280;6587;42.728;23.288;2022-10-31T01:51:15;95603.59;;;13.95;87.34
13041;BME280;6587;42.728;23.288;2022-10-31T01:53:44;95604.38;;;14.04;86.90
13041;BME280;6587;42.728;23.288;2022-10-31T01:56:13;95602.75;;;14.00;86.62
13041;BME280;6587;42.728;23.288;2022-10-31T01:58:45;95611.06;;;14.12;87.12
13041;BME280;6587;42.728;23.288;2022-10-31T02:01:16;95588.44;;;14.02;87.04
13041;BME280;6587;42.728;23.288;2022-10-31T02:03:44;95601.06;;;13.94;88.98
13041;BME280;6587;42.728;23.288;2022-10-31T02:06:19;95600.97;;;14.12;88.45
13041;BME280;6587;42.728;23.288;2022-10-31T02:08:49;95596.84;;;13.97;88.31
13041;BME280;6587;42.728;23.288;2022-10-31T02:11:17;95595.91;;;14.15;87.41
13041;BME280;6587;42.728;23.288;2022-10-31T02:13:46;95591.72;;;14.14;87.57
13041;BME280;6587;42.728;23.288;2022-10-31T02:16:13;95576.63;;;14.10;87.77
13041;BME280;6587;42.728;23.288;2022-10-31T02:18:43;95588.41;;;14.06;88.93
13041;BME280;6587;42.728;23.288;2022-10-31T02:21:15;95596.91;;;13.90;89.82
13041;BME280;6587;42.728;23.288;2022-10-31T02:26:54;95609.38;;;14.11;90.04
13041;BME280;6587;42.728;23.288;2022-10-31T02:32:31;95620.38;;;14.06;90.41
13041;BME280;6587;42.728;23.288;2022-10-31T02:35:10;95625.41;;;14.07;89.76
13041;BME280;6587;42.728;23.288;2022-10-31T02:37:46;95626.34;;;13.91;90.62
13041;BME280;6587;42.728;23.288;2022-10-31T02:40:21;95633.91;;;13.91;90.92
13041;BME280;6587;42.728;23.288;2022-10-31T02:43:12;95616.34;;;13.65;90.39
13041;BME280;6587;42.728;23.288;2022-10-31T02:45:45;95635.72;;;13.60;92.24
13041;BME280;6587;42.728;23.288;2022-10-31T02:48:19;95638.94;;;13.86;89.79
13041;BME280;6587;42.728;23.288;2022-10-31T02:50:52;95637.31;;;13.81;89.43
13041;BME280;6587;42.728;23.288;2022-10-31T02:53:20;95629.81;;;13.64;90.14
13041;BME280;6587;42.728;23.288;2022-10-31T02:55:59;95635.78;;;13.35;93.06
13041;BME280;6587;42.728;23.288;2022-10-31T02:58:31;95613.97;;;13.20;92.63
13041;BME280;6587;42.728;23.288;2022-10-31T03:01:26;95635.78;;;13.32;92.24
13041;BME280;6587;42.728;23.288;2022-10-31T03:04:09;95639.13;;;13.36;92.39
13041;BME280;6587;42.728;23.288;2022-10-31T03:06:45;95648.38;;;13.35;91.78
13041;BME280;6587;42.728;23.288;2022-10-31T03:09:22;95642.50;;;13.32;92.54
13041;BME280;6587;42.728;23.288;2022-10-31T03:11:58;95642.53;;;13.16;93.65
13041;BME280;6587;42.728;23.288;2022-10-31T03:14:32;95641.72;;;13.04;94.35
13041;BME280;6587;42.728;23.288;2022-10-31T03:17:04;95647.59;;;12.89;95.96
13041;BME280;6587;42.728;23.288;2022-10-31T03:19:38;95648.44;;;12.52;99.85
13041;BME280;6587;42.728;23.288;2022-10-31T03:22:12;95642.56;;;12.73;98.31
13041;BME280;6587;42.728;23.288;2022-10-31T03:24:43;95649.28;;;12.77;97.34
13041;BME280;6587;42.728;23.288;2022-10-31T03:27:15;95659.34;;;12.58;98.44
13041;BME280;6587;42.728;23.288;2022-10-31T03:29:45;95649.28;;;12.50;98.28
13041;BME280;6587;42.728;23.288;2022-10-31T03:32:17;95655.13;;;12.37;100.00
13041;BME280;6587;42.728;23.288;2022-10-31T03:34:48;95661.78;;;12.04;100.00
13041;BME280;6587;42.728;23.288;2022-10-31T03:37:18;95663.44;;;12.00;100.00
13041;BME280;6587;42.728;23.288;2022-10-31T03:39:48;95657.59;;;12.12;100.00
13041;BME280;6587;42.728;23.288;2022-10-31T03:42:22;95660.13;;;12.12;100.00
13041;BME280;6587;42.728;23.288;2022-10-31T03:44:55;95664.25;;;11.93;100.00
13041;BME280;6587;42.728;23.288;2022-10-31T03:47:23;95673.47;;;11.94;100.00
13041;BME280;6587;42.728;23.288;2022-10-31T03:49:52;95671.75;;;11.81;100.00
13041;BME280;6587;42.728;23.288;2022-10-31T03:52:24;95671.81;;;11.98;100.00
13041;BME280;6587;42.728;23.288;2022-10-31T03:54:56;95680.13;;;11.81;100.00
13041;BME280;6587;42.728;23.288;2022-10-31T03:57:35;95676.00;;;11.91;100.00
13041;BME280;6587;42.728;23.288;2022-10-31T04:00:08;95683.53;;;11.94;100.00
13041;BME280;6587;42.728;23.288;2022-10-31T04:02:48;95683.53;;;11.90;100.00
13041;BME280;6587;42.728;23.288;2022-10-31T04:05:19;95684.38;;;11.90;100.00
13041;BME280;6587;42.728;23.288;2022-10-31T04:07:51;95670.03;;;11.80;100.00
13041;BME280;6587;42.728;23.288;2022-10-31T04:10:21;95681.00;;;11.90;100.00
13041;BME280;6587;42.728;23.288;2022-10-31T04:12:53;95680.91;;;11.71;100.00
13041;BME280;6587;42.728;23.288;2022-10-31T04:15:26;95684.22;;;11.61;100.00
13041;BME280;6587;42.728;23.288;2022-10-31T04:17:55;95684.97;;;11.42;100.00
13041;BME280;6587;42.728;23.288;2022-10-31T04:20:32;95689.09;;;11.32;100.00
13041;BME280;6587;42.728;23.288;2022-10-31T04:23:00;95688.22;;;11.22;100.00
13041;BME280;6587;42.728;23.288;2022-10-31T04:25:27;95695.78;;;11.31;100.00
13041;BME280;6587;42.728;23.288;2022-10-31T04:27:54;95689.91;;;11.26;100.00
13041;BME280;6587;42.728;23.288;2022-10-31T04:30:22;95689.06;;;11.27;100.00
13041;BME280;6587;42.728;23.288;2022-10-31T04:32:49;95700.97;;;11.59;100.00
13041;BME280;6587;42.728;23.288;2022-10-31T04:35:16;95686.81;;;11.82;100.00
13041;BME280;6587;42.728;23.288;2022-10-31T04:37:46;95692.78;;;11.98;100.00
13041;BME280;6587;42.728;23.288;2022-10-31T04:40:13;95694.34;;;11.76;100.00
13041;BME280;6587;42.728;23.288;2022-10-31T04:42:43;95690.94;;;11.65;100.00
13041;BME280;6587;42.728;23.288;2022-10-31T04:45:10;95701.75;;;11.53;100.00
13041;BME280;6587;42.728;23.288;2022-10-31T04:47:38;95700.19;;;11.74;100.00
13041;BME280;6587;42.728;23.288;2022-10-31T04:50:06;95700.34;;;12.03;100.00
13041;BME280;6587;42.728;23.288;2022-10-31T04:52:38;95702.00;;;11.99;100.00
13041;BME280;6587;42.728;23.288;2022-10-31T04:55:08;95707.88;;;12.04;100.00
13041;BME280;6587;42.728;23.288;2022-10-31T04:58:12;95705.38;;;12.06;100.00
13041;BME280;6587;42.728;23.288;2022-10-31T05:00:39;95715.38;;;11.92;100.00
13041;BME280;6587;42.728;23.288;2022-10-31T05:03:06;95713.69;;;11.85;100.00
13041;BME280;6587;42.728;23.288;2022-10-31T05:05:33;95710.25;;;11.80;100.00
13041;BME280;6587;42.728;23.288;2022-10-31T05:08:02;95721.16;;;11.74;100.00
13041;BME280;6587;42.728;23.288;2022-10-31T05:10:32;95723.66;;;11.70;100.00
13041;BME280;6587;42.728;23.288;2022-10-31T05:13:02;95727.69;;;11.46;100.00
13041;BME280;6587;42.728;23.288;2022-10-31T05:15:47;95726.81;;;11.40;100.00
13041;BME280;6587;42.728;23.288;2022-10-31T05:18:33;95722.56;;;11.26;100.00
13041;BME280;6587;42.728;23.288;2022-10-31T05:21:18;95713.88;;;10.86;100.00
13041;BME280;6587;42.728;23.288;2022-10-31T05:23:51;95724.84;;;10.97;100.00
13041;BME280;6587;42.728;23.288;2022-10-31T05:26:22;95719.88;;;11.06;100.00
13041;BME280;6587;42.728;23.288;2022-10-31T05:28:50;95716.38;;;10.84;100.00
13041;BME280;6587;42.728;23.288;2022-10-31T05:31:17;95739.19;;;11.14;100.00
13041;BME280;6587;42.728;23.288;2022-10-31T05:33:44;95739.16;;;11.07;100.00
13041;BME280;6587;42.728;23.288;2022-10-31T05:36:29;95743.13;;;10.85;100.00
13041;BME280;6587;42.728;23.288;2022-10-31T05:38:58;95749.91;;;10.90;100.00
13041;BME280;6587;42.728;23.288;2022-10-31T05:41:32;95758.31;;;10.98;100.00
13041;BME280;6587;42.728;23.288;2022-10-31T05:44:12;95755.91;;;11.08;100.00
13041;BME280;6587;42.728;23.288;2022-10-31T05:46:52;95752.66;;;11.23;100.00
13041;BME280;6587;42.728;23.288;2022-10-31T05:49:37;95748.34;;;11.07;100.00
13041;BME280;6587;42.728;23.288;2022-10-31T05:52:23;95755.75;;;10.92;100.00
13041;BME280;6587;42.728;23.288;2022-10-31T05:54:57;95758.53;;;11.28;100.00
13041;BME280;6587;42.728;23.288;2022-10-31T05:57:25;95747.81;;;11.48;100.00
13041;BME280;6587;42.728;23.288;2022-10-31T05:59:52;95767.88;;;11.46;100.00
13041;BME280;6587;42.728;23.288;2022-10-31T06:02:21;95763.69;;;11.45;100.00
13041;BME280;6587;42.728;23.288;2022-10-31T06:05:26;95764.56;;;11.49;100.00
13041;BME280;6587;42.728;23.288;2022-10-31T06:07:54;95762.09;;;11.58;100.00
13041;BME280;6587;42.728;23.288;2022-10-31T06:10:22;95766.31;;;11.61;100.00
13041;BME280;6587;42.728;23.288;2022-10-31T06:12:54;95766.34;;;11.68;100.00
13041;BME280;6587;42.728;23.288;2022-10-31T06:15:32;95778.16;;;11.83;100.00
13041;BME280;6587;42.728;23.288;2022-10-31T06:18:00;95768.22;;;11.98;100.00
13041;BME280;6587;42.728;23.288;2022-10-31T06:20:30;95783.28;;;11.95;100.00
13041;BME280;6587;42.728;23.288;2022-10-31T06:23:02;95782.47;;;12.01;100.00
13041;BME280;6587;42.728;23.288;2022-10-31T06:25:31;95785.13;;;12.35;100.00
13041;BME280;6587;42.728;23.288;2022-10-31T06:28:00;95795.16;;;12.28;100.00
13041;BME280;6587;42.728;23.288;2022-10-31T06:30:47;95791.06;;;12.60;100.00
13041;BME280;6587;42.728;23.288;2022-10-31T06:33:14;95791.91;;;12.57;100.00
13041;BME280;6587;42.728;23.288;2022-10-31T06:35:51;95788.59;;;12.81;100.00
13041;BME280;6587;42.728;23.288;2022-10-31T06:38:18;95791.13;;;12.92;100.00
13041;BME280;6587;42.728;23.288;2022-10-31T06:40:46;95798.69;;;12.87;100.00
13041;BME280;6587;42.728;23.288;2022-10-31T06:43:27;95796.19;;;13.01;100.00
13041;BME280;6587;42.728;23.288;2022-10-31T06:46:20;95797.03;;;13.23;100.00
13041;BME280;6587;42.728;23.288;2022-10-31T06:49:19;95796.19;;;13.21;100.00
13041;BME280;6587;42.728;23.288;2022-10-31T06:51:53;95808.81;;;13.45;98.52
13041;BME280;6587;42.728;23.288;2022-10-31T06:54:20;95807.13;;;13.57;97.77
13041;BME280;6587;42.728;23.288;2022-10-31T06:56:47;95800.41;;;13.65;97.98
13041;BME280;6587;42.728;23.288;2022-10-31T06:59:16;95811.34;;;13.48;98.81
13041;BME280;6587;42.728;23.288;2022-10-31T07:02:10;95802.81;;;14.12;95.20
13041;BME280;6587;42.728;23.288;2022-10-31T07:04:38;95802.81;;;14.14;94.37
13041;BME280;6587;42.728;23.288;2022-10-31T07:07:06;95804.50;;;14.09;95.44
13041;BME280;6587;42.728;23.288;2022-10-31T07:09:34;95808.69;;;14.17;95.80
13041;BME280;6587;42.728;23.288;2022-10-31T07:12:03;95808.56;;;14.57;92.96
13041;BME280;6587;42.728;23.288;2022-10-31T07:14:35;95796.78;;;14.52;93.91
13041;BME280;6587;42.728;23.288;2022-10-31T07:17:02;95800.13;;;14.64;91.90
13041;BME280;6587;42.728;23.288;2022-10-31T07:19:39;95800.00;;;14.81;90.46
13041;BME280;6587;42.728;23.288;2022-10-31T07:22:07;95796.47;;;15.07;88.92
13041;BME280;6587;42.728;23.288;2022-10-31T07:24:34;95787.97;;;15.19;88.50
13041;BME280;6587;42.728;23.288;2022-10-31T07:27:40;95787.22;;;15.07;89.79
13041;BME280;6587;42.728;23.288;2022-10-31T07:30:11;95789.66;;;15.16;89.18
13041;BME280;6587;42.728;23.288;2022-10-31T07:32:39;95783.75;;;15.17;89.10
13041;BME280;6587;42.728;23.288;2022-10-31T07:35:07;95785.38;;;15.25;89.24
13041;BME280;6587;42.728;23.288;2022-10-31T07:37:52;95781.72;;;15.59;86.41
13041;BME280;6587;42.728;23.288;2022-10-31T07:40:21;95784.91;;;15.84;84.82
13041;BME280;6587;42.728;23.288;2022-10-31T07:42:49;95779.84;;;15.81;85.57
13041;BME280;6587;42.728;23.288;2022-10-31T07:45:36;95782.44;;;15.77;85.21
13041;BME280;6587;42.728;23.288;2022-10-31T07:48:22;95778.09;;;15.86;86.02
13041;BME280;6587;42.728;23.288;2022-10-31T07:51:21;95781.31;;;16.04;85.72
13041;BME280;6587;42.728;23.288;2022-10-31T07:54:15;95779.38;;;16.27;85.18
13041;BME280;6587;42.728;23.288;2022-10-31T07:56:41;95785.09;;;16.40;83.55
13041;BME280;6587;42.728;23.288;2022-10-31T07:59:08;95774.00;;;16.50;83.29
13041;BME280;6587;42.728;23.288;2022-10-31T08:01:37;95775.06;;;16.32;84.06
13041;BME280;6587;42.728;23.288;2022-10-31T08:04:24;95775.66;;;16.53;83.60
13041;BME280;6587;42.728;23.288;2022-10-31T08:07:09;95780.91;;;16.39;83.91
13041;BME280;6587;42.728;23.288;2022-10-31T08:09:38;95770.34;;;16.70;84.48
13041;BME280;6587;42.728;23.288;2022-10-31T08:12:17;95781.31;;;17.32;80.10
13041;BME280;6587;42.728;23.288;2022-10-31T08:14:44;95781.41;;;17.77;77.09
13041;BME280;6587;42.728;23.288;2022-10-31T08:17:14;95772.19;;;18.18;75.11
13041;BME280;6587;42.728;23.288;2022-10-31T08:19:55;95776.13;;;18.33;73.26
13041;BME280;6587;42.728;23.288;2022-10-31T08:22:32;95764.09;;;17.99;74.06
13041;BME280;6587;42.728;23.288;2022-10-31T08:25:00;95773.28;;;18.04;74.61
13041;BME280;6587;42.728;23.288;2022-10-31T08:27:28;95780.28;;;18.77;71.64
13041;BME280;6587;42.728;23.288;2022-10-31T08:29:58;95772.50;;;19.22;67.64
13041;BME280;6587;42.728;23.288;2022-10-31T08:32:26;95766.34;;;19.66;64.90
13041;BME280;6587;42.728;23.288;2022-10-31T08:35:15;95768.50;;;19.82;62.91
13041;BME280;6587;42.728;23.288;2022-10-31T08:38:01;95764.28;;;19.81;63.47
13041;BME280;6587;42.728;23.288;2022-10-31T08:40:30;95764.84;;;19.92;63.00
13041;BME280;6587;42.728;23.288;2022-10-31T08:42:59;95755.88;;;20.39;60.41
13041;BME280;6587;42.728;23.288;2022-10-31T08:45:26;95763.91;;;20.57;59.99
13041;BME280;6587;42.728;23.288;2022-10-31T08:47:58;95761.78;;;20.71;58.21
13041;BME280;6587;42.728;23.288;2022-10-31T08:50:26;95757.09;;;20.85;58.07
13041;BME280;6587;42.728;23.288;2022-10-31T08:52:53;95759.09;;;21.04;56.96
13041;BME280;6587;42.728;23.288;2022-10-31T08:55:20;95762.78;;;20.65;58.30
13041;BME280;6587;42.728;23.288;2022-10-31T08:58:10;95758.44;;;21.24;57.01
13041;BME280;6587;42.728;23.288;2022-10-31T09:00:44;95757.03;;;22.42;54.32
13041;BME280;6587;42.728;23.288;2022-10-31T09:03:17;95762.59;;;22.75;52.70
13041;BME280;6587;42.728;23.288;2022-10-31T09:05:45;95761.81;;;22.27;52.44
13041;BME280;6587;42.728;23.288;2022-10-31T09:08:13;95754.59;;;22.84;51.56
13041;BME280;6587;42.728;23.288;2022-10-31T09:10:40;95753.84;;;23.04;50.63
13041;BME280;6587;42.728;23.288;2022-10-31T09:13:10;95755.16;;;23.14;50.33
13041;BME280;6587;42.728;23.288;2022-10-31T09:15:39;95752.88;;;23.49;49.56
13041;BME280;6587;42.728;23.288;2022-10-31T09:18:21;95744.06;;;23.97;47.99
13041;BME280;6587;42.728;23.288;2022-10-31T09:20:54;95736.50;;;23.53;48.52
13041;BME280;6587;42.728;23.288;2022-10-31T09:23:23;95738.09;;;23.35;48.67
13041;BME280;6587;42.728;23.288;2022-10-31T09:25:52;95742.19;;;23.60;48.81
13041;BME280;6587;42.728;23.288;2022-10-31T09:28:36;95739.34;;;24.27;47.37
13041;BME280;6587;42.728;23.288;2022-10-31T09:31:08;95737.06;;;24.40;46.55
13041;BME280;6587;42.728;23.288;2022-10-31T09:34:03;95735.34;;;24.01;47.20
13041;BME280;6587;42.728;23.288;2022-10-31T09:36:36;95741.00;;;23.89;47.10
13041;BME280;6587;42.728;23.288;2022-10-31T09:39:06;95741.28;;;23.83;47.52
13041;BME280;6587;42.728;23.288;2022-10-31T09:41:58;95734.56;;;24.57;46.26
13041;BME280;6587;42.728;23.288;2022-10-31T09:44:36;95732.13;;;24.92;45.46
13041;BME280;6587;42.728;23.288;2022-10-31T09:47:17;95731.31;;;24.91;45.23
13041;BME280;6587;42.728;23.288;2022-10-31T09:50:14;95727.34;;;25.55;43.59
13041;BME280;6587;42.728;23.288;2022-10-31T09:52:47;95722.53;;;25.84;42.89
13041;BME280;6587;42.728;23.288;2022-10-31T09:55:20;95719.03;;;25.85;43.45
13041;BME280;6587;42.728;23.288;2022-10-31T09:57:52;95724.34;;;26.64;41.54
13041;BME280;6587;42.728;23.288;2022-10-31T10:00:21;95714.13;;;26.62;41.29
13041;BME280;6587;42.728;23.288;2022-10-31T10:02:51;95708.78;;;27.13;40.43
13041;BME280;6587;42.728;23.288;2022-10-31T10:05:24;95713.34;;;27.24;39.63
13041;BME280;6587;42.728;23.288;2022-10-31T10:08:02;95697.56;;;27.14;39.75
13041;BME280;6587;42.728;23.288;2022-10-31T10:10:57;95699.38;;;27.12;39.78
13041;BME280;6587;42.728;23.288;2022-10-31T10:13:54;95696.75;;;27.58;39.42
13041;BME280;6587;42.728;23.288;2022-10-31T10:16:38;95693.53;;;27.54;38.62
13041;BME280;6587;42.728;23.288;2022-10-31T10:19:18;95689.63;;;28.20;37.93
13041;BME280;6587;42.728;23.288;2022-10-31T10:21:51;95684.84;;;28.70;37.35
13041;BME280;6587;42.728;23.288;2022-10-31T10:24:33;95683.50;;;27.64;37.54
13041;BME280;6587;42.728;23.288;2022-10-31T10:27:11;95674.09;;;26.57;38.81
13041;BME280;6587;42.728;23.288;2022-10-31T10:29:46;95679.84;;;28.94;36.82
13041;BME280;6587;42.728;23.288;2022-10-31T10:32:18;95671.03;;;29.50;34.77
13041;BME280;6587;42.728;23.288;2022-10-31T10:34:50;95668.06;;;29.69;34.50
13041;BME280;6587;42.728;23.288;2022-10-31T10:37:26;95670.63;;;27.64;36.52
13041;BME280;6587;42.728;23.288;2022-10-31T10:39:58;95659.66;;;28.18;37.05
13041;BME280;6587;42.728;23.288;2022-10-31T10:42:28;95653.34;;;27.80;36.50
13041;BME280;6587;42.728;23.288;2022-10-31T10:45:17;95651.22;;;29.11;34.85
13041;BME280;6587;42.728;23.288;2022-10-31T10:48:08;95652.84;;;29.65;33.56
13041;BME280;6587;42.728;23.288;2022-10-31T10:50:42;95642.88;;;29.33;34.54
13041;BME280;6587;42.728;23.288;2022-10-31T10:53:36;95646.09;;;29.88;33.46
13041;BME280;6587;42.728;23.288;2022-10-31T10:56:17;95643.13;;;30.80;32.59
13041;BME280;6587;42.728;23.288;2022-10-31T10:58:47;95641.25;;;30.93;31.96
13041;BME280;6587;42.728;23.288;2022-10-31T11:01:15;95622.34;;;31.04;31.57
13041;BME280;6587;42.728;23.288;2022-10-31T11:03:42;95633.22;;;31.67;31.58
13041;BME280;6587;42.728;23.288;2022-10-31T11:06:19;95635.09;;;31.65;31.38
13041;BME280;6587;42.728;23.288;2022-10-31T11:08:52;95626.50;;;31.18;31.63
13041;BME280;6587;42.728;23.288;2022-10-31T11:11:23;95628.72;;;31.11;31.65
13041;BME280;6587;42.728;23.288;2022-10-31T11:13:57;95616.97;;;33.50;29.14
13041;BME280;6587;42.728;23.288;2022-10-31T11:16:31;95617.00;;;32.86;30.14
13041;BME280;6587;42.728;23.288;2022-10-31T11:19:08;95612.47;;;33.41;28.58
13041;BME280;6587;42.728;23.288;2022-10-31T11:21:36;95608.22;;;33.30;28.77
13041;BME280;6587;42.728;23.288;2022-10-31T11:24:13;95609.63;;;34.36;28.01
13041;BME280;6587;42.728;23.288;2022-10-31T11:26:42;95580.91;;;32.28;29.02
13041;BME280;6587;42.728;23.288;2022-10-31T11:29:14;95604.25;;;33.36;28.70
13041;BME280;6587;42.728;23.288;2022-10-31T11:31:43;95603.81;;;33.30;28.82
13041;BME280;6587;42.728;23.288;2022-10-31T11:34:20;95599.28;;;32.58;28.99
13041;BME280;6587;42.728;23.288;2022-10-31T11:36:50;95599.00;;;31.84;29.71
13041;BME280;6587;42.728;23.288;2022-10-31T11:39:23;95592.91;;;32.08;29.62
13041;BME280;6587;42.728;23.288;2022-10-31T11:41:52;95579.84;;;32.42;29.10
13041;BME280;6587;42.728;23.288;2022-10-31T11:44:22;95588.41;;;35.28;26.56
13041;BME280;6587;42.728;23.288;2022-10-31T11:46:51;95588.50;;;35.45;26.25
13041;BME280;6587;42.728;23.288;2022-10-31T11:49:23;95585.88;;;35.92;26.25
13041;BME280;6587;42.728;23.288;2022-10-31T11:51:54;95575.56;;;36.19;25.79
13041;BME280;6587;42.728;23.288;2022-10-31T11:54:26;95579.66;;;34.90;26.53
13041;BME280;6587;42.728;23.288;2022-10-31T11:56:54;95575.31;;;34.11;26.98
13041;BME280;6587;42.728;23.288;2022-10-31T11:59:25;95575.38;;;34.60;26.39
13041;BME280;6587;42.728;23.288;2022-10-31T12:01:55;95565.31;;;36.71;25.31
13041;BME280;6587;42.728;23.288;2022-10-31T12:04:41;95563.38;;;35.44;25.55
13041;BME280;6587;42.728;23.288;2022-10-31T12:07:10;95568.19;;;32.89;28.09
13041;BME280;6587;42.728;23.288;2022-10-31T12:09:38;95571.66;;;33.31;27.80
13041;BME280;6587;42.728;23.288;2022-10-31T12:12:29;95558.09;;;32.75;28.33
13041;BME280;6587;42.728;23.288;2022-10-31T12:15:07;95567.88;;;32.82;29.97
13041;BME280;6587;42.728;23.288;2022-10-31T12:17:48;95560.09;;;33.45;28.56
13041;BME280;6587;42.728;23.288;2022-10-31T12:20:26;95560.28;;;33.33;27.83
13041;BME280;6587;42.728;23.288;2022-10-31T12:23:02;95557.44;;;32.29;29.02
13041;BME280;6587;42.728;23.288;2022-10-31T12:25:39;95563.41;;;32.52;30.02
13041;BME280;6587;42.728;23.288;2022-10-31T12:28:41;95566.69;;;32.11;30.16
13041;BME280;6587;42.728;23.288;2022-10-31T12:31:24;95562.00;;;33.22;29.02
13041;BME280;6587;42.728;23.288;2022-10-31T12:34:00;95558.88;;;31.21;31.17
13041;BME280;6587;42.728;23.288;2022-10-31T12:36:39;95560.34;;;30.90;30.89
13041;BME280;6587;42.728;23.288;2022-10-31T12:39:23;95541.50;;;33.90;29.23
13041;BME280;6587;42.728;23.288;2022-10-31T12:41:57;95557.69;;;33.94;28.02
13041;BME280;6587;42.728;23.288;2022-10-31T12:44:43;95555.28;;;31.91;30.16
13041;BME280;6587;42.728;23.288;2022-10-31T12:47:26;95553.75;;;31.88;29.42
13041;BME280;6587;42.728;23.288;2022-10-31T12:50:08;95549.03;;;34.43;28.06
13041;BME280;6587;42.728;23.288;2022-10-31T12:52:47;95553.38;;;34.14;28.18
13041;BME280;6587;42.728;23.288;2022-10-31T12:55:32;95553.44;;;34.82;27.55
13041;BME280;6587;42.728;23.288;2022-10-31T12:58:07;95548.59;;;33.78;27.33
13041;BME280;6587;42.728;23.288;2022-10-31T13:00:38;95544.09;;;32.66;28.55
13041;BME280;6587;42.728;23.288;2022-10-31T13:03:20;95554.44;;;31.91;29.73
13041;BME280;6587;42.728;23.288;2022-10-31T13:05:51;95546.31;;;31.39;30.04
13041;BME280;6587;42.728;23.288;2022-10-31T13:08:23;95545.84;;;31.45;30.33
13041;BME280;6587;42.728;23.288;2022-10-31T13:10:54;95546.78;;;32.00;29.19
13041;BME280;6587;42.728;23.288;2022-10-31T13:13:31;95545.63;;;30.90;30.50
13041;BME280;6587;42.728;23.288;2022-10-31T13:16:04;95546.44;;;30.80;30.68
13041;BME280;6587;42.728;23.288;2022-10-31T13:18:35;95547.13;;;31.51;29.94
13041;BME280;6587;42.728;23.288;2022-10-31T13:21:11;95548.34;;;32.24;29.35
13041;BME280;6587;42.728;23.288;2022-10-31T13:23:40;95543.75;;;34.05;27.69
13041;BME280;6587;42.728;23.288;2022-10-31T13:26:10;95544.78;;;35.01;27.18
13041;BME280;6587;42.728;23.288;2022-10-31T13:28:44;95542.16;;;33.21;27.38
13041;BME280;6587;42.728;23.288;2022-10-31T13:31:13;95549.81;;;33.74;26.70
13041;BME280;6587;42.728;23.288;2022-10-31T13:33:44;95535.94;;;32.71;27.35
13041;BME280;6587;42.728;23.288;2022-10-31T13:36:21;95546.66;;;31.91;28.38
13041;BME280;6587;42.728;23.288;2022-10-31T13:38:55;95547.13;;;32.71;28.15